サンフアン の空港の天気 - METARとTAF

ルイス・ムニョス・マリン国際空港 ( TJSJ / SJU ) - プエルトリコ サンフアン
飛行場実況気象(Metar)
観測時間11/17 13:56 AST (11/17 17:56 UTC)
風向・風速東 7m/s
視程10km以上
天気現象
少しの雲 雲底高度 1070m
少しの雲 雲底高度 1830m
全天の4割程度の雲 雲底高度 2900m
気温30℃
湿度61%
気圧1014.4hPa
METARTJSJ 171756Z 08013KT 10SM FEW035 FEW060 SCT095 30/22 A2996 RMK AO2 SLP144 60000 T03000217 10306 20261 58025
過去の天気等 Google飛行場航空写真 Wunderground天気予報

過去48時間のMETAR

飛行場予報(TAF)
発表時間: 11/17 13:39 AST (11/17 17:39 UTC)
予報対象時間: 17日14時 AST ~ 18日14時 AST
風向・風速東 8m/s
視程10km以上
天気現象周辺でしゅう雨
全天の4割程度の雲 雲底高度 910m
全天の4割程度の雲 雲底高度 1520m
17日19時 AST から
風向・風速東 3m/s
視程10km以上
全天の4割程度の雲 雲底高度 610m
18日9時 AST から
風向・風速東 8m/s
視程10km以上
天気現象しゅう雨
全天の4割程度の雲 雲底高度 610m
全天の4割程度の雲 雲底高度 1070m
TJSJ 171739Z 1718/1818 08015KT P6SM VCSH SCT030 SCT050
FM172300 10005KT P6SM SCT020
FM181300 08015KT P6SM SHRA SCT020 SCT035